Time;durP1;ratioP1;P1;durP2;ratioP2;P2;SDS_P1;SDS_P2;PMS_P1;PMS_P2;Temp;Humidity;BMP_temperature;BMP_pressure;BME280_temperature;BME280_humidity;BME280_pressure;Samples;Min_cycle;Max_cycle;Signal;HPM_P1;HPM_P2
2023/09/29 00:00:17;;;;;;;21.40;10.80;;;;;;;15.77;80.69;100180.13;105883;1257;74185;-61
2023/09/29 00:03:26;;;;;;;18.20;10.90;;;;;;;15.76;80.72;100183.65;105814;1258;59599;-60
2023/09/29 00:06:14;;;;;;;20.80;10.80;;;;;;;15.73;80.87;100177.23;105932;1257;59819;-61
2023/09/29 00:09:12;;;;;;;20.60;10.80;;;;;;;15.69;81.34;100179.61;105780;1251;72502;-64
2023/09/29 00:12:00;;;;;;;19.00;10.70;;;;;;;15.65;81.49;100178.06;106050;1256;69169;-61
2023/09/29 00:14:48;;;;;;;17.40;10.70;;;;;;;15.60;81.75;100177.95;106049;1254;73061;-62
2023/09/29 00:17:37;;;;;;;17.20;10.00;;;;;;;15.57;81.81;100179.48;106031;1253;59688;-62
2023/09/29 00:20:26;;;;;;;20.60;12.30;;;;;;;15.53;82.03;100181.69;106008;1254;60652;-62
2023/09/29 00:23:15;;;;;;;21.70;11.00;;;;;;;15.50;82.17;100186.83;105684;1257;74314;-62
2023/09/29 00:26:03;;;;;;;18.80;10.70;;;;;;;15.48;82.20;100187.58;106048;1254;68507;-61
2023/09/29 00:28:51;;;;;;;19.10;11.20;;;;;;;15.47;82.02;100185.63;105951;1251;74172;-60
2023/09/29 00:31:41;;;;;;;20.00;10.20;;;;;;;15.50;81.99;100183.78;105712;1251;59567;-61
2023/09/29 00:34:29;;;;;;;19.40;9.30;;;;;;;15.54;81.88;100183.09;105696;1254;61561;-62
2023/09/29 00:37:17;;;;;;;19.20;10.50;;;;;;;15.57;81.92;100177.95;106119;1251;71780;-62
2023/09/29 00:40:12;;;;;;;18.30;10.10;;;;;;;15.58;81.69;100178.71;106044;1257;69334;-61
2023/09/29 00:50:48;;;;;;;20.40;12.00;;;;;;;15.54;82.00;100175.33;102592;1292;600312;-62
2023/09/29 00:53:38;;;;;;;18.40;10.10;;;;;;;15.49;82.08;100175.09;105008;1269;60796;-63
2023/09/29 00:56:28;;;;;;;15.60;10.40;;;;;;;15.47;82.20;100171.38;105025;1270;60910;-62
2023/09/29 00:59:16;;;;;;;18.50;11.40;;;;;;;15.44;82.30;100163.66;104998;1266;72209;-61
2023/09/29 01:02:08;;;;;;;19.90;11.20;;;;;;;15.40;82.57;100164.16;105127;1262;67032;-61
2023/09/29 01:04:57;;;;;;;20.40;11.80;;;;;;;15.37;82.56;100166.97;106036;1252;185305;-64
2023/09/29 01:07:47;;;;;;;20.10;11.40;;;;;;;15.32;82.90;100164.36;105852;1257;59941;-62
2023/09/29 01:10:36;;;;;;;24.30;10.10;;;;;;;15.31;82.55;100165.45;105877;1256;60368;-62
2023/09/29 01:13:24;;;;;;;17.10;10.00;;;;;;;15.30;82.64;100163.70;105749;1253;70960;-62
2023/09/29 01:16:13;;;;;;;20.60;10.90;;;;;;;15.29;82.66;100166.52;105865;1254;68241;-64
2023/09/29 01:19:03;;;;;;;18.50;11.00;;;;;;;15.26;82.94;100164.78;105762;1253;72057;-61
2023/09/29 01:21:51;;;;;;;19.90;11.30;;;;;;;15.24;83.27;100160.16;105886;1253;59241;-62
2023/09/29 01:24:39;;;;;;;21.40;11.40;;;;;;;15.21;83.24;100153.98;105920;1255;60623;-62
2023/09/29 01:27:28;;;;;;;20.30;11.60;;;;;;;15.20;83.44;100155.35;105958;1252;71209;-62
2023/09/29 01:30:18;;;;;;;18.50;11.40;;;;;;;15.18;83.38;100154.99;105612;1252;67239;-61
2023/09/29 01:33:06;;;;;;;19.50;11.10;;;;;;;15.16;83.59;100150.58;106044;1256;74224;-61
2023/09/29 01:35:54;;;;;;;21.20;11.60;;;;;;;15.13;83.59;100151.36;105728;1256;60994;-61
2023/09/29 01:38:42;;;;;;;20.80;10.60;;;;;;;15.14;83.47;100160.58;105817;1254;61539;-60
2023/09/29 01:41:31;;;;;;;17.40;10.80;;;;;;;15.13;83.33;100163.19;105829;1253;70317;-61
2023/09/29 01:44:19;;;;;;;18.00;10.10;;;;;;;15.15;83.51;100166.77;105968;1253;68865;-60
2023/09/29 01:47:08;;;;;;;21.40;10.70;;;;;;;15.17;83.33;100161.40;105553;1252;73176;-61
2023/09/29 01:49:56;;;;;;;18.40;9.80;;;;;;;15.20;83.15;100165.92;106073;1255;60789;-61
2023/09/29 01:52:46;;;;;;;18.90;10.00;;;;;;;15.25;83.12;100166.67;105864;1255;59759;-62
2023/09/29 01:55:34;;;;;;;16.00;9.70;;;;;;;15.32;82.76;100169.41;105996;1253;71808;-61
2023/09/29 01:58:23;;;;;;;17.20;9.30;;;;;;;15.37;82.69;100171.66;105702;1251;68370;-61
2023/09/29 02:01:12;;;;;;;15.80;9.20;;;;;;;15.41;82.29;100174.14;105799;1255;74208;-62
2023/09/29 02:04:01;;;;;;;15.90;9.70;;;;;;;15.42;82.19;100174.48;105834;1253;59302;-61
2023/09/29 02:06:50;;;;;;;19.20;10.10;;;;;;;15.43;81.82;100179.83;105986;1252;61583;-61
2023/09/29 02:09:38;;;;;;;21.00;10.10;;;;;;;15.40;81.92;100179.70;105912;1252;71583;-63
2023/09/29 02:12:29;;;;;;;20.50;9.80;;;;;;;15.38;82.13;100179.07;105746;1256;69451;-61
2023/09/29 02:15:18;;;;;;;21.90;9.60;;;;;;;15.38;82.15;100178.52;105606;1256;73470;-60
2023/09/29 02:18:07;;;;;;;15.80;9.40;;;;;;;15.40;81.80;100176.52;105853;1255;59157;-62
2023/09/29 02:20:57;;;;;;;18.50;9.80;;;;;;;15.36;81.98;100173.83;105854;1253;60290;-61
2023/09/29 02:23:45;;;;;;;18.60;10.40;;;;;;;15.29;82.31;100171.11;105810;1253;72904;-63
2023/09/29 02:26:34;;;;;;;22.60;11.00;;;;;;;15.22;82.72;100170.91;105698;1257;68438;-62
2023/09/29 02:29:23;;;;;;;16.70;8.90;;;;;;;15.16;82.79;100170.27;105830;1253;73156;-61
2023/09/29 02:32:11;;;;;;;18.30;10.60;;;;;;;15.09;83.16;100165.55;105838;1253;59369;-61
2023/09/29 02:34:59;;;;;;;20.10;11.00;;;;;;;15.05;83.15;100161.48;105854;1254;61867;-62
2023/09/29 02:37:48;;;;;;;23.60;10.50;;;;;;;15.03;83.54;100158.63;105937;1252;70405;-61
2023/09/29 02:40:36;;;;;;;21.00;10.50;;;;;;;15.01;83.49;100158.93;105880;1252;69078;-62
2023/09/29 02:43:24;;;;;;;19.70;10.80;;;;;;;14.99;83.66;100154.67;105704;1253;73186;-64
2023/09/29 02:46:15;;;;;;;17.10;10.70;;;;;;;14.98;83.72;100148.51;105913;1256;59347;-62
2023/09/29 02:49:04;;;;;;;18.70;9.50;;;;;;;14.99;83.88;100143.05;105901;1252;59484;-61
2023/09/29 02:51:52;;;;;;;16.40;10.40;;;;;;;15.02;83.64;100138.21;105954;1253;72659;-60
2023/09/29 02:54:40;;;;;;;15.40;9.20;;;;;;;15.03;83.69;100138.23;105963;1254;69478;-60
2023/09/29 02:57:29;;;;;;;17.50;9.60;;;;;;;15.04;83.49;100130.84;106014;1256;73263;-60
2023/09/29 03:00:26;;;;;;;19.60;10.00;;;;;;;15.03;83.40;100129.58;106109;1253;59324;-60
2023/09/29 03:03:15;;;;;;;20.00;10.60;;;;;;;15.03;83.54;100124.67;105905;1253;60585;-59
2023/09/29 03:06:07;;;;;;;16.50;8.80;;;;;;;15.03;83.28;100126.29;105936;1253;70924;-61
2023/09/29 03:08:58;;;;;;;18.80;9.80;;;;;;;15.05;83.46;100122.33;105971;1253;68459;-59
2023/09/29 03:11:47;;;;;;;20.50;10.10;;;;;;;15.08;83.17;100121.33;105809;1252;73237;-60
2023/09/29 03:14:35;;;;;;;16.50;9.60;;;;;;;15.11;83.13;100122.05;105858;1257;59320;-64
2023/09/29 03:17:24;;;;;;;19.90;10.50;;;;;;;15.12;83.32;100119.35;105886;1256;60795;-61
2023/09/29 03:20:14;;;;;;;22.10;11.30;;;;;;;15.10;83.25;100119.13;105884;1253;72740;-60
2023/09/29 03:23:04;;;;;;;17.70;9.90;;;;;;;15.09;83.23;100120.64;105878;1252;68361;-60
2023/09/29 03:25:54;;;;;;;18.80;10.00;;;;;;;15.09;83.19;100120.71;105863;1253;73089;-60
2023/09/29 03:28:43;;;;;;;17.60;8.90;;;;;;;15.09;83.37;100124.44;106091;1253;59231;-60
2023/09/29 03:31:31;;;;;;;17.90;10.30;;;;;;;15.10;83.36;100124.15;105996;1253;59935;-61
2023/09/29 03:34:19;;;;;;;16.00;9.30;;;;;;;15.09;83.30;100115.30;106044;1252;71937;-63
2023/09/29 03:37:07;;;;;;;18.10;9.90;;;;;;;15.08;83.29;100117.87;105571;1257;68466;-62
2023/09/29 03:39:55;;;;;;;17.40;8.80;;;;;;;15.07;83.21;100116.34;105590;1254;74291;-61
2023/09/29 03:42:43;;;;;;;17.00;8.90;;;;;;;15.08;83.06;100117.16;105846;1253;59323;-60
2023/09/29 03:45:31;;;;;;;14.60;9.10;;;;;;;15.10;82.68;100109.16;105625;1255;60798;-62
2023/09/29 03:48:21;;;;;;;18.90;9.80;;;;;;;15.09;82.46;100103.01;105699;1257;72027;-61
2023/09/29 03:51:09;;;;;;;16.30;9.30;;;;;;;15.09;82.57;100094.05;105954;1254;68115;-63
2023/09/29 03:53:58;;;;;;;19.50;10.00;;;;;;;15.08;82.34;100090.19;105710;1257;74188;-62
2023/09/29 03:56:46;;;;;;;18.20;9.80;;;;;;;15.07;82.28;100090.29;105635;1258;60191;-62
2023/09/29 03:59:37;;;;;;;18.50;9.20;;;;;;;15.05;82.20;100084.29;105632;1258;61103;-62
2023/09/29 04:02:25;;;;;;;18.90;9.80;;;;;;;15.02;82.53;100083.48;105640;1254;72125;-65
2023/09/29 04:05:15;;;;;;;18.40;9.30;;;;;;;14.99;82.38;100085.20;105611;1255;66155;-70
2023/09/29 04:08:04;;;;;;;18.30;8.80;;;;;;;14.95;82.44;100085.20;106613;1255;72814;-64
2023/09/29 04:10:55;;;;;;;18.30;9.30;;;;;;;14.92;82.48;100080.30;105987;1256;59507;-64
2023/09/29 04:13:43;;;;;;;18.10;9.30;;;;;;;14.92;82.43;100081.58;105837;1254;60809;-64
2023/09/29 04:16:31;;;;;;;22.10;9.90;;;;;;;14.91;82.38;100082.70;105869;1252;72734;-65
2023/09/29 04:19:20;;;;;;;17.70;9.30;;;;;;;14.91;82.14;100073.23;105857;1253;67005;-65
2023/09/29 04:22:08;;;;;;;22.10;9.40;;;;;;;14.91;82.11;100068.81;105826;1257;73185;-62
2023/09/29 04:24:56;;;;;;;17.50;9.40;;;;;;;14.89;82.25;100063.30;105738;1253;59807;-66
2023/09/29 04:27:45;;;;;;;17.30;9.50;;;;;;;14.85;82.32;100064.88;106122;1254;59486;-63
2023/09/29 04:30:33;;;;;;;18.00;9.60;;;;;;;14.80;82.43;100067.45;106067;1253;72041;-65
2023/09/29 04:33:21;;;;;;;16.10;9.60;;;;;;;14.76;82.32;100074.50;105666;1256;68914;-67
2023/09/29 04:36:11;;;;;;;17.60;9.30;;;;;;;14.73;81.77;100073.75;105703;1254;74023;-66
2023/09/29 04:38:59;;;;;;;18.20;9.60;;;;;;;14.71;81.61;100069.61;105922;1256;59311;-64
2023/09/29 04:41:48;;;;;;;16.40;9.60;;;;;;;14.72;81.10;100069.73;105589;1256;59574;-68
2023/09/29 04:44:37;;;;;;;19.90;10.00;;;;;;;14.73;80.50;100078.57;105761;1253;73378;-65
2023/09/29 04:47:27;;;;;;;17.90;10.10;;;;;;;14.71;80.00;100076.06;105603;1256;67012;-63
2023/09/29 04:50:16;;;;;;;18.60;9.40;;;;;;;14.71;79.66;100075.83;106320;1254;73218;-63
2023/09/29 04:53:04;;;;;;;15.80;8.90;;;;;;;14.70;79.01;100071.13;105936;1254;59911;-63
2023/09/29 04:55:52;;;;;;;16.50;9.50;;;;;;;14.73;78.70;100073.90;105867;1256;59790;-64
2023/09/29 04:58:40;;;;;;;20.40;10.30;;;;;;;14.73;78.01;100075.48;105512;1254;72911;-62
2023/09/29 05:01:28;;;;;;;18.90;9.40;;;;;;;14.75;77.69;100074.58;105850;1256;66968;-64
2023/09/29 05:04:16;;;;;;;17.10;9.30;;;;;;;14.76;77.18;100069.64;105524;1253;72989;-63
2023/09/29 05:07:05;;;;;;;16.20;8.80;;;;;;;14.77;77.02;100073.65;105721;1253;59931;-61
2023/09/29 05:09:53;;;;;;;17.60;9.00;;;;;;;14.77;76.99;100072.40;105753;1253;60669;-64
2023/09/29 05:12:43;;;;;;;19.60;10.00;;;;;;;14.76;77.08;100069.66;105752;1252;72137;-67
2023/09/29 05:15:32;;;;;;;19.60;10.00;;;;;;;14.75;76.88;100066.23;105607;1253;66990;-65
2023/09/29 05:18:23;;;;;;;18.90;9.60;;;;;;;14.76;76.89;100066.48;105792;1253;73079;-66
2023/09/29 05:21:11;;;;;;;17.90;9.30;;;;;;;14.75;76.71;100067.14;105588;1256;59235;-65
2023/09/29 05:24:00;;;;;;;16.90;9.20;;;;;;;14.75;76.62;100067.45;105665;1253;61141;-64
2023/09/29 05:26:48;;;;;;;18.00;8.80;;;;;;;14.75;76.40;100058.85;105702;1253;72015;-65
2023/09/29 05:29:37;;;;;;;16.30;8.40;;;;;;;14.78;76.08;100061.96;106374;1254;68099;-63
2023/09/29 05:32:24;;;;;;;16.90;9.10;;;;;;;14.82;75.70;100056.76;105729;1253;73020;-63
2023/09/29 05:35:13;;;;;;;17.10;8.30;;;;;;;14.88;75.24;100058.56;105672;1257;59707;-63
2023/09/29 05:38:01;;;;;;;21.90;9.50;;;;;;;14.93;74.98;100056.42;105495;1258;61968;-64
2023/09/29 05:40:51;;;;;;;18.00;9.30;;;;;;;15.00;74.74;100060.10;105721;1255;73830;-63
2023/09/29 05:43:39;;;;;;;16.50;8.50;;;;;;;15.07;74.46;100056.41;105560;1256;67438;-63
2023/09/29 05:46:28;;;;;;;20.40;9.20;;;;;;;15.12;74.05;100057.47;105510;1253;74182;-63
2023/09/29 05:49:16;;;;;;;15.50;8.10;;;;;;;15.17;73.90;100053.64;105833;1259;59202;-63
2023/09/29 05:52:04;;;;;;;18.50;9.80;;;;;;;15.22;73.19;100052.64;105727;1257;60576;-64
2023/09/29 05:54:53;;;;;;;15.90;9.20;;;;;;;15.29;73.11;100054.59;105687;1256;72334;-64
2023/09/29 05:57:41;;;;;;;14.90;8.60;;;;;;;15.37;73.32;100056.17;105727;1255;66978;-64
2023/09/29 06:00:29;;;;;;;14.80;8.70;;;;;;;15.42;72.50;100047.12;105894;1254;72833;-64
2023/09/29 06:03:18;;;;;;;16.90;9.10;;;;;;;15.47;72.48;100044.80;105642;1261;59411;-67
2023/09/29 06:06:11;;;;;;;17.40;8.50;;;;;;;15.54;72.41;100046.81;105736;1257;61621;-62
2023/09/29 06:08:59;;;;;;;14.00;8.10;;;;;;;15.61;72.35;100043.95;105771;1254;72650;-62
2023/09/29 06:11:49;;;;;;;15.20;8.90;;;;;;;15.66;72.14;100045.77;105879;1256;68208;-64
2023/09/29 06:14:37;;;;;;;17.00;8.60;;;;;;;15.72;71.91;100041.79;105477;1256;73740;-68
2023/09/29 06:17:30;;;;;;;16.60;8.90;;;;;;;15.79;71.65;100039.69;105741;1254;59282;-66
2023/09/29 06:20:18;;;;;;;18.00;9.10;;;;;;;15.85;71.61;100039.86;105621;1254;61739;-66
2023/09/29 06:23:07;;;;;;;16.60;8.60;;;;;;;15.88;71.00;100044.52;105767;1254;72872;-65
2023/09/29 06:26:00;;;;;;;18.40;8.50;;;;;;;15.97;70.75;100051.16;106101;1255;68475;-64
2023/09/29 06:28:47;;;;;;;16.70;8.70;;;;;;;16.05;70.40;100047.27;105598;1253;72880;-63
2023/09/29 06:31:37;;;;;;;16.30;8.50;;;;;;;16.16;70.39;100043.66;105667;1253;59204;-63
2023/09/29 06:34:25;;;;;;;17.30;9.60;;;;;;;16.25;70.01;100042.96;105638;1257;59328;-67
2023/09/29 06:37:13;;;;;;;15.60;8.50;;;;;;;16.36;69.79;100043.64;105695;1255;72625;-67
2023/09/29 06:40:01;;;;;;;16.80;8.80;;;;;;;16.46;69.20;100046.21;105646;1253;69266;-66
2023/09/29 06:42:49;;;;;;;19.50;9.30;;;;;;;16.61;69.10;100050.71;105465;1253;73077;-66
2023/09/29 06:45:38;;;;;;;18.30;8.90;;;;;;;16.87;68.19;100053.21;105812;1257;59258;-63
2023/09/29 06:48:55;;;;;;;22.30;9.80;;;;;;;17.82;66.55;100046.02;105859;1253;60773;-65
2023/09/29 06:51:43;;;;;;;25.50;9.00;;;;;;;19.75;61.39;100046.56;105513;1253;73814;-64
2023/09/29 06:54:32;;;;;;;14.50;7.90;;;;;;;21.53;56.38;100047.88;105803;1253;68551;-66
2023/09/29 06:57:20;;;;;;;19.40;8.40;;;;;;;23.21;51.68;100046.31;105524;1258;72459;-67
2023/09/29 07:00:09;;;;;;;19.10;8.00;;;;;;;24.65;47.03;100047.55;105827;1259;59261;-65
2023/09/29 07:02:57;;;;;;;18.60;8.30;;;;;;;25.84;44.24;100046.34;105699;1257;59356;-68
2023/09/29 07:05:48;;;;;;;21.30;9.00;;;;;;;26.78;41.80;100045.66;105645;1253;72714;-67
2023/09/29 07:08:36;;;;;;;20.50;8.90;;;;;;;27.72;39.52;100047.55;105722;1253;69033;-67
2023/09/29 07:11:25;;;;;;;13.70;7.40;;;;;;;28.36;36.97;100046.94;105808;1253;72661;-66
2023/09/29 07:14:13;;;;;;;17.90;7.50;;;;;;;29.01;35.67;100053.94;105847;1253;59353;-68
2023/09/29 07:17:01;;;;;;;14.30;7.70;;;;;;;29.75;35.28;100053.98;105856;1257;59942;-67
2023/09/29 07:19:50;;;;;;;15.70;7.90;;;;;;;30.39;34.16;100046.67;105929;1258;73836;-64
2023/09/29 07:22:38;;;;;;;14.30;6.80;;;;;;;30.91;33.18;100054.55;105819;1253;69453;-65
2023/09/29 07:25:26;;;;;;;14.70;7.20;;;;;;;31.45;32.79;100051.66;105789;1254;72062;-65
2023/09/29 07:28:18;;;;;;;17.00;7.40;;;;;;;31.83;31.53;100050.41;105513;1253;59320;-65
2023/09/29 07:31:06;;;;;;;15.00;7.30;;;;;;;31.90;30.68;100046.02;105841;1253;60105;-65
2023/09/29 07:33:55;;;;;;;14.80;7.40;;;;;;;31.87;30.61;100040.70;105759;1253;72863;-66
2023/09/29 07:36:48;;;;;;;14.70;6.80;;;;;;;31.51;30.32;100041.00;105757;1253;66362;-65
2023/09/29 07:39:36;;;;;;;17.50;6.60;;;;;;;31.02;31.19;100044.15;105797;1253;73232;-64
2023/09/29 07:42:25;;;;;;;17.30;6.80;;;;;;;30.81;31.47;100043.92;105725;1257;59341;-66
2023/09/29 07:45:13;;;;;;;17.00;6.70;;;;;;;30.43;32.14;100044.60;105917;1257;62329;-65
2023/09/29 07:48:01;;;;;;;13.70;6.20;;;;;;;30.37;32.68;100044.17;105674;1253;72700;-65
2023/09/29 07:50:51;;;;;;;14.70;6.40;;;;;;;30.47;32.53;100045.83;105717;1253;69635;-64
2023/09/29 07:53:39;;;;;;;18.10;6.50;;;;;;;30.84;32.43;100048.91;105773;1253;72078;-66
2023/09/29 07:56:27;;;;;;;15.70;6.10;;;;;;;31.26;31.66;100042.98;105728;1257;59251;-64
2023/09/29 07:59:16;;;;;;;14.80;6.10;;;;;;;31.18;31.33;100039.70;105654;1257;61620;-65
2023/09/29 08:02:04;;;;;;;21.30;6.80;;;;;;;30.97;31.58;100042.41;105669;1253;72463;-68
2023/09/29 08:04:53;;;;;;;16.30;6.10;;;;;;;30.63;32.06;100041.55;105710;1253;69536;-69
2023/09/29 08:07:41;;;;;;;19.00;6.50;;;;;;;29.98;32.93;100035.04;105780;1253;74589;-66
2023/09/29 08:10:30;;;;;;;16.00;6.20;;;;;;;29.66;33.54;100036.30;105374;1260;59529;-67
2023/09/29 08:13:18;;;;;;;15.30;5.60;;;;;;;29.20;33.91;100037.02;105893;1254;60066;-66
2023/09/29 08:16:06;;;;;;;18.80;6.80;;;;;;;29.21;34.34;100036.66;105756;1258;72862;-69
2023/09/29 08:18:55;;;;;;;19.10;6.80;;;;;;;29.68;33.97;100032.58;105825;1254;67065;-66
2023/09/29 08:21:43;;;;;;;21.30;6.40;;;;;;;29.93;33.23;100027.34;105763;1253;73310;-64
2023/09/29 08:24:32;;;;;;;17.50;6.30;;;;;;;30.15;33.21;100023.34;105748;1253;59154;-65
2023/09/29 08:27:20;;;;;;;16.60;6.10;;;;;;;30.44;32.85;100021.60;105544;1253;61840;-64
2023/09/29 08:30:10;;;;;;;18.00;6.20;;;;;;;31.08;31.99;100019.50;105775;1253;71118;-64
2023/09/29 08:32:58;;;;;;;17.20;6.00;;;;;;;31.57;30.97;100022.38;105482;1257;68242;-66
2023/09/29 08:36:07;;;;;;;14.00;5.70;;;;;;;31.49;30.74;100025.09;105725;1258;73172;-65
2023/09/29 08:38:55;;;;;;;14.20;6.10;;;;;;;31.92;30.47;100022.92;105400;1258;59141;-65
2023/09/29 08:42:07;;;;;;;16.10;5.90;;;;;;;32.24;30.16;100025.88;105660;1258;59780;-66
2023/09/29 08:44:59;;;;;;;15.80;5.50;;;;;;;32.60;29.25;100024.36;105569;1253;72880;-65
2023/09/29 08:47:51;;;;;;;17.50;6.50;;;;;;;32.37;29.62;100021.90;105661;1258;69517;-65
2023/09/29 08:50:44;;;;;;;16.80;6.50;;;;;;;32.27;29.73;100020.52;106022;1253;72078;-65
2023/09/29 08:53:33;;;;;;;12.20;5.60;;;;;;;32.44;29.74;100018.09;105894;1253;59267;-63
2023/09/29 08:56:21;;;;;;;10.60;5.20;;;;;;;32.86;29.28;100023.46;105571;1259;60780;-65
2023/09/29 08:59:09;;;;;;;19.30;5.80;;;;;;;33.13;28.87;100027.15;105726;1253;72847;-65
2023/09/29 09:01:58;;;;;;;12.90;5.90;;;;;;;32.71;28.94;100021.08;105640;1253;67548;-65
2023/09/29 09:04:48;;;;;;;13.50;5.40;;;;;;;32.14;29.87;100021.68;105381;1254;72104;-66
2023/09/29 09:07:38;;;;;;;12.40;5.80;;;;;;;31.75;30.91;100019.96;105721;1258;59330;-65
2023/09/29 09:10:32;;;;;;;16.00;5.70;;;;;;;30.96;31.56;100014.25;105710;1257;61783;-67
2023/09/29 09:13:22;;;;;;;10.50;5.80;;;;;;;29.93;33.13;100012.29;105724;1253;71398;-66
2023/09/29 09:16:11;;;;;;;18.40;6.50;;;;;;;29.63;34.05;100011.53;105862;1253;69398;-66
2023/09/29 09:19:13;;;;;;;14.70;5.50;;;;;;;29.58;34.54;100010.90;105676;1253;72122;-66
2023/09/29 09:22:01;;;;;;;14.40;5.60;;;;;;;29.90;34.13;100005.60;105568;1253;59378;-67
2023/09/29 09:24:49;;;;;;;14.30;5.80;;;;;;;30.36;33.58;100005.22;105693;1257;60291;-66
2023/09/29 09:27:43;;;;;;;13.80;5.30;;;;;;;30.63;33.25;100001.08;105529;1253;72811;-65
2023/09/29 09:30:38;;;;;;;12.90;5.60;;;;;;;30.49;33.04;99996.83;105794;1257;68489;-66
2023/09/29 09:33:27;;;;;;;16.50;5.60;;;;;;;30.76;32.73;99989.27;105531;1254;71867;-66
2023/09/29 09:36:15;;;;;;;12.00;5.10;;;;;;;31.44;32.65;99995.51;105726;1259;59323;-63
2023/09/29 09:39:10;;;;;;;14.10;5.70;;;;;;;31.45;31.29;99995.52;105435;1257;60663;-65
2023/09/29 09:41:58;;;;;;;14.30;5.80;;;;;;;32.05;31.35;99989.58;105661;1253;71219;-65
2023/09/29 09:44:48;;;;;;;13.80;4.80;;;;;;;32.75;29.83;99990.77;105505;1255;67447;-66
2023/09/29 09:47:40;;;;;;;11.60;4.60;;;;;;;33.13;29.26;99992.37;105498;1256;72198;-65
2023/09/29 09:50:32;;;;;;;17.20;5.30;;;;;;;33.53;28.59;99989.50;105747;1257;59247;-65
2023/09/29 09:53:25;;;;;;;14.90;5.30;;;;;;;33.90;27.98;99984.24;105693;1258;59420;-64
2023/09/29 09:56:24;;;;;;;13.50;5.40;;;;;;;34.08;27.91;99981.52;105683;1253;72524;-66
2023/09/29 09:59:16;;;;;;;11.80;4.60;;;;;;;34.83;27.05;99982.77;105537;1257;67082;-66
2023/09/29 10:02:06;;;;;;;12.00;4.60;;;;;;;35.41;26.13;99976.95;105798;1258;74066;-65
2023/09/29 10:04:55;;;;;;;11.90;4.90;;;;;;;35.47;25.91;99976.25;105787;1254;59290;-64
2023/09/29 10:07:48;;;;;;;11.50;4.60;;;;;;;35.25;25.77;99970.80;105447;1258;61035;-66
2023/09/29 10:10:41;;;;;;;11.30;4.50;;;;;;;34.49;26.45;99971.16;105680;1253;73412;-67
2023/09/29 10:13:35;;;;;;;13.40;4.30;;;;;;;33.96;27.15;99969.49;105567;1253;68703;-64
2023/09/29 10:16:24;;;;;;;12.40;5.20;;;;;;;33.63;27.15;99964.90;105736;1254;71704;-64
2023/09/29 10:19:16;;;;;;;12.70;4.70;;;;;;;33.50;27.38;99965.61;105634;1258;59173;-64
2023/09/29 10:22:08;;;;;;;10.70;4.20;;;;;;;33.82;27.08;99960.61;105720;1257;59352;-67
2023/09/29 10:24:57;;;;;;;13.60;4.30;;;;;;;34.42;26.27;99956.40;105700;1253;72855;-66
2023/09/29 10:27:49;;;;;;;11.50;4.50;;;;;;;34.74;25.81;99956.39;105855;1253;68398;-68
2023/09/29 10:30:40;;;;;;;15.50;4.80;;;;;;;34.95;25.49;99956.48;105579;1253;74300;-65
2023/09/29 10:33:28;;;;;;;10.70;4.80;;;;;;;34.96;25.45;99957.58;105492;1253;59373;-67
2023/09/29 10:36:18;;;;;;;13.40;4.60;;;;;;;35.42;24.86;99952.77;105637;1253;61180;-68
2023/09/29 10:39:06;;;;;;;12.90;4.90;;;;;;;35.97;24.41;99950.90;105781;1253;71372;-67
2023/09/29 10:42:21;;;;;;;11.90;4.30;;;;;;;36.20;24.27;99948.33;105785;1253;68437;-66
2023/09/29 10:45:10;;;;;;;14.40;4.80;;;;;;;35.71;24.31;99949.39;105611;1253;72151;-65
2023/09/29 10:48:07;;;;;;;13.20;4.10;;;;;;;35.37;24.83;99949.55;105813;1253;59321;-66
2023/09/29 10:50:55;;;;;;;12.20;4.60;;;;;;;34.78;25.11;99946.09;105679;1257;59436;-66
2023/09/29 10:53:43;;;;;;;9.60;4.60;;;;;;;34.16;25.78;99941.59;105831;1253;72807;-65
2023/09/29 10:56:34;;;;;;;12.10;4.70;;;;;;;34.20;26.07;99936.00;105997;1256;69610;-65
2023/09/29 10:59:22;;;;;;;15.30;4.40;;;;;;;34.23;26.59;99934.95;105585;1259;73117;-67
2023/09/29 11:02:11;;;;;;;10.40;4.50;;;;;;;34.37;26.13;99934.98;105710;1259;59218;-64
2023/09/29 11:05:04;;;;;;;9.60;4.40;;;;;;;34.05;26.03;99930.84;105778;1253;61405;-66
2023/09/29 11:07:52;;;;;;;12.20;4.50;;;;;;;33.16;27.07;99931.79;105744;1253;73854;-66
2023/09/29 11:10:41;;;;;;;8.70;4.00;;;;;;;32.21;28.16;99929.15;105824;1257;68768;-66
2023/09/29 11:13:31;;;;;;;12.00;4.70;;;;;;;31.61;28.64;99924.13;105751;1258;73364;-67
2023/09/29 11:16:19;;;;;;;12.10;4.60;;;;;;;31.84;29.32;99921.63;105595;1253;59389;-66
2023/09/29 11:19:12;;;;;;;12.10;4.40;;;;;;;31.84;29.36;99919.86;105757;1253;60624;-65
2023/09/29 11:22:01;;;;;;;13.80;4.70;;;;;;;31.60;29.82;99921.15;105684;1258;73642;-66
2023/09/29 11:24:51;;;;;;;11.40;4.40;;;;;;;31.49;30.27;99920.44;105785;1257;68945;-64
2023/09/29 11:27:39;;;;;;;11.20;4.40;;;;;;;31.20;29.97;99920.34;105846;1253;72209;-64
2023/09/29 11:30:29;;;;;;;10.20;4.30;;;;;;;30.77;31.01;99918.87;105700;1259;59580;-61
2023/09/29 11:33:17;;;;;;;11.40;4.50;;;;;;;30.17;31.66;99916.10;105833;1257;59292;-61
2023/09/29 11:36:17;;;;;;;11.50;4.70;;;;;;;29.57;32.65;99918.76;105802;1257;71688;-67
2023/09/29 11:39:07;;;;;;;13.70;4.70;;;;;;;29.22;33.55;99921.56;105617;1261;69943;-64
2023/09/29 11:41:57;;;;;;;11.90;4.80;;;;;;;28.83;34.07;99923.05;105785;1256;71902;-63
2023/09/29 11:44:45;;;;;;;11.80;5.10;;;;;;;28.47;34.88;99920.65;105726;1257;59467;-66
2023/09/29 11:47:42;;;;;;;14.10;5.10;;;;;;;28.33;35.31;99918.33;105513;1259;59515;-63
2023/09/29 11:50:31;;;;;;;14.20;5.40;;;;;;;28.16;35.59;99915.55;105618;1255;72344;-65
2023/09/29 11:53:20;;;;;;;14.90;5.00;;;;;;;28.09;36.04;99914.21;105765;1256;68427;-65
2023/09/29 11:56:08;;;;;;;12.20;4.80;;;;;;;27.99;36.12;99914.70;105735;1257;74413;-65
2023/09/29 11:58:57;;;;;;;13.40;5.40;;;;;;;27.90;36.26;99914.55;105574;1257;59683;-64
2023/09/29 12:01:46;;;;;;;13.50;5.10;;;;;;;27.79;36.91;99914.74;105844;1259;59876;-64
2023/09/29 12:04:34;;;;;;;13.50;5.50;;;;;;;27.67;36.90;99910.29;105767;1258;73777;-65
2023/09/29 12:07:22;;;;;;;15.10;4.60;;;;;;;27.63;37.24;99909.69;105756;1255;66976;-63
2023/09/29 12:10:13;;;;;;;12.80;4.90;;;;;;;27.62;37.47;99902.25;105733;1258;73143;-63
2023/09/29 12:13:01;;;;;;;12.50;5.40;;;;;;;27.45;37.20;99904.46;105649;1253;59265;-64
2023/09/29 12:15:49;;;;;;;18.10;5.90;;;;;;;27.20;37.65;99904.45;105481;1256;59713;-63
2023/09/29 12:18:37;;;;;;;12.00;5.50;;;;;;;27.00;38.51;99906.05;105549;1259;73798;-63
2023/09/29 12:21:25;;;;;;;15.80;5.30;;;;;;;26.85;38.49;99906.29;105467;1258;68501;-63
2023/09/29 12:24:14;;;;;;;12.10;5.30;;;;;;;26.61;38.64;99903.79;105499;1260;73225;-63
2023/09/29 12:27:03;;;;;;;12.30;5.10;;;;;;;26.41;39.10;99904.61;105745;1259;59419;-65
2023/09/29 12:29:51;;;;;;;16.10;5.20;;;;;;;26.36;39.44;99902.95;105570;1253;61587;-62
2023/09/29 12:32:43;;;;;;;16.00;5.70;;;;;;;26.33;39.51;99895.13;105715;1257;71551;-66
2023/09/29 12:35:32;;;;;;;10.70;5.20;;;;;;;26.30;39.81;99894.20;105673;1256;68802;-63
2023/09/29 12:38:20;;;;;;;13.00;5.10;;;;;;;26.27;40.32;99894.28;105738;1266;73305;-65
2023/09/29 12:41:08;;;;;;;18.10;5.80;;;;;;;26.23;40.33;99897.27;105518;1254;59227;-65
2023/09/29 12:43:56;;;;;;;14.50;5.80;;;;;;;26.13;40.66;99898.87;105956;1258;60938;-64
2023/09/29 12:46:45;;;;;;;14.60;5.80;;;;;;;25.94;40.88;99900.13;105707;1254;72383;-66
2023/09/29 12:49:33;;;;;;;12.40;5.60;;;;;;;25.82;41.38;99899.42;105914;1257;67566;-66
2023/09/29 12:52:21;;;;;;;16.00;5.70;;;;;;;25.78;41.62;99902.95;105835;1256;73194;-64
2023/09/29 12:55:11;;;;;;;12.90;5.20;;;;;;;25.71;41.79;99899.84;105757;1258;59605;-65
2023/09/29 12:58:06;;;;;;;11.30;4.70;;;;;;;25.59;41.63;99900.94;105777;1257;59850;-62